createdAt,value
2018-09-17T00:00:16.092Z,16.10
2018-09-17T00:02:45.016Z,16.10
2018-09-17T00:05:13.849Z,16.00
2018-09-17T00:07:42.789Z,16.00
2018-09-17T00:10:11.704Z,16.00
2018-09-17T00:12:40.506Z,16.10
2018-09-17T00:15:09.426Z,16.00
2018-09-17T00:17:38.271Z,16.00
2018-09-17T00:20:07.166Z,16.00
2018-09-17T00:22:36.000Z,15.90
2018-09-17T00:25:04.956Z,15.90
2018-09-17T00:27:33.785Z,15.90
2018-09-17T00:30:02.661Z,15.90
2018-09-17T00:32:31.532Z,15.80
2018-09-17T00:35:00.412Z,15.80
2018-09-17T00:37:29.302Z,15.70
2018-09-17T00:39:58.272Z,15.70
2018-09-17T00:42:27.112Z,15.70
2018-09-17T00:44:56.040Z,15.60
2018-09-17T00:47:24.912Z,15.60
2018-09-17T00:49:53.910Z,15.60
2018-09-17T00:52:22.828Z,15.50
2018-09-17T00:54:51.656Z,15.50
2018-09-17T00:57:20.597Z,15.40
2018-09-17T00:59:49.509Z,15.40
2018-09-17T01:02:18.369Z,15.40
2018-09-17T01:04:47.285Z,15.30
2018-09-17T01:07:16.161Z,15.40
2018-09-17T01:09:45.056Z,15.30
2018-09-17T01:12:15.177Z,15.20
2018-09-17T01:14:44.604Z,15.20
2018-09-17T01:17:13.536Z,15.10
2018-09-17T01:19:42.384Z,15.20
2018-09-17T01:22:11.256Z,15.20
2018-09-17T01:24:40.116Z,15.20
2018-09-17T01:27:09.003Z,15.20
2018-09-17T01:29:37.888Z,15.10
2018-09-17T01:32:06.768Z,15.10
2018-09-17T01:34:35.623Z,15.10
2018-09-17T01:37:04.537Z,15.10
2018-09-17T01:39:33.418Z,15.00
2018-09-17T01:42:02.365Z,15.00
2018-09-17T01:44:31.192Z,15.00
2018-09-17T01:47:00.061Z,15.00
2018-09-17T01:49:28.952Z,15.00
2018-09-17T01:51:57.820Z,15.00
2018-09-17T01:54:26.656Z,15.00
2018-09-17T01:56:55.557Z,14.90
2018-09-17T01:59:24.393Z,14.90
2018-09-17T02:01:53.341Z,14.90
2018-09-17T02:04:22.220Z,14.80
2018-09-17T02:06:51.058Z,14.90
2018-09-17T02:09:19.936Z,14.90
2018-09-17T02:11:48.787Z,14.80
2018-09-17T02:14:17.716Z,14.90
2018-09-17T02:16:46.608Z,14.80
2018-09-17T02:19:15.562Z,14.80
2018-09-17T02:21:44.572Z,14.70
2018-09-17T02:24:13.422Z,14.70
2018-09-17T02:26:42.319Z,14.70
2018-09-17T02:29:11.211Z,14.60
2018-09-17T02:31:40.207Z,14.60
2018-09-17T02:34:09.172Z,14.60
2018-09-17T02:36:38.037Z,14.50
2018-09-17T02:39:07.971Z,14.50
2018-09-17T02:41:36.899Z,14.60
2018-09-17T02:44:05.857Z,14.60
2018-09-17T02:46:34.897Z,14.60
2018-09-17T02:49:03.769Z,14.50
2018-09-17T02:51:32.719Z,14.70
2018-09-17T02:54:01.612Z,14.70
2018-09-17T02:56:30.532Z,14.80
2018-09-17T02:58:59.517Z,14.90
2018-09-17T03:01:28.400Z,15.10
2018-09-17T03:03:57.317Z,15.10
2018-09-17T03:06:26.284Z,15.00
2018-09-17T03:08:55.173Z,15.00
2018-09-17T03:11:24.048Z,14.90
2018-09-17T03:13:52.969Z,14.80
2018-09-17T03:16:21.817Z,14.70
2018-09-17T03:18:57.573Z,14.60
2018-09-17T03:21:26.444Z,14.60
2018-09-17T03:23:55.508Z,14.50
2018-09-17T03:26:24.356Z,14.50
2018-09-17T03:28:53.228Z,14.50
2018-09-17T03:31:22.160Z,14.40
2018-09-17T03:33:51.044Z,14.30
2018-09-17T03:36:20.135Z,14.30
2018-09-17T03:38:49.756Z,14.30
2018-09-17T03:41:19.668Z,14.20
2018-09-17T03:43:50.044Z,14.20
2018-09-17T03:46:18.938Z,14.20
2018-09-17T03:48:47.966Z,14.10
2018-09-17T03:51:17.261Z,14.00
2018-09-17T03:53:46.141Z,14.00
2018-09-17T03:56:14.972Z,14.00
2018-09-17T03:58:43.853Z,14.00
2018-09-17T04:01:12.861Z,14.00
2018-09-17T04:03:41.774Z,14.00
2018-09-17T04:06:10.609Z,14.00
2018-09-17T04:08:39.505Z,14.00
2018-09-17T04:11:08.341Z,14.00
2018-09-17T04:13:37.253Z,14.00
2018-09-17T04:16:06.133Z,14.00
2018-09-17T04:18:35.184Z,14.00
2018-09-17T04:21:04.061Z,14.00
2018-09-17T04:23:36.963Z,14.00
2018-09-17T04:26:07.192Z,14.00
2018-09-17T04:28:36.672Z,13.90
2018-09-17T04:31:05.992Z,13.90
2018-09-17T04:33:36.881Z,13.90
2018-09-17T04:36:05.952Z,13.90
2018-09-17T04:38:34.815Z,13.90
2018-09-17T04:41:04.080Z,13.90
2018-09-17T04:43:33.068Z,13.90
2018-09-17T04:46:01.950Z,14.20
2018-09-17T04:48:31.181Z,14.30
2018-09-17T04:51:00.057Z,14.50
2018-09-17T04:53:28.888Z,14.60
2018-09-17T04:55:57.772Z,14.80
2018-09-17T04:58:26.632Z,14.90
2018-09-17T05:00:55.549Z,14.90
2018-09-17T05:03:24.449Z,14.80
2018-09-17T05:05:53.405Z,14.70
2018-09-17T05:08:22.272Z,14.60
2018-09-17T05:10:51.179Z,14.50
2018-09-17T05:13:20.142Z,14.50
2018-09-17T05:15:48.967Z,14.50
2018-09-17T05:18:17.860Z,14.50
2018-09-17T05:20:46.788Z,14.50
2018-09-17T05:23:15.716Z,14.60
2018-09-17T05:25:44.616Z,14.60
2018-09-17T05:28:13.531Z,14.70
2018-09-17T05:30:42.462Z,14.80
2018-09-17T05:33:11.352Z,14.80
2018-09-17T05:35:40.208Z,14.90
2018-09-17T05:38:09.200Z,15.00
2018-09-17T05:40:38.078Z,15.00
2018-09-17T05:43:06.992Z,15.10
2018-09-17T05:45:35.865Z,15.10
2018-09-17T05:48:04.792Z,15.10
2018-09-17T05:50:33.652Z,15.20
2018-09-17T05:53:02.544Z,15.20
2018-09-17T05:55:31.457Z,15.20
2018-09-17T05:58:00.372Z,15.20
2018-09-17T06:00:29.379Z,15.30
2018-09-17T06:02:59.224Z,15.30
2018-09-17T06:05:28.397Z,15.30
2018-09-17T06:07:57.316Z,15.40
2018-09-17T06:10:26.245Z,15.40
2018-09-17T06:12:55.100Z,15.40
2018-09-17T06:15:24.006Z,15.50
2018-09-17T06:17:52.901Z,15.60
2018-09-17T06:20:21.798Z,15.70
2018-09-17T06:22:50.676Z,15.80
2018-09-17T06:25:19.593Z,15.90
2018-09-17T06:27:48.473Z,16.00
2018-09-17T06:30:17.413Z,16.00
2018-09-17T06:32:46.385Z,16.00
2018-09-17T06:35:15.285Z,16.10
2018-09-17T06:37:44.168Z,16.20
2018-09-17T06:40:13.080Z,16.30
2018-09-17T06:42:41.928Z,16.40
2018-09-17T06:45:10.880Z,16.40
2018-09-17T06:47:39.732Z,16.50
2018-09-17T06:50:08.626Z,16.70
2018-09-17T06:52:37.496Z,16.70
2018-09-17T06:55:06.393Z,16.80
2018-09-17T06:57:35.380Z,16.80
2018-09-17T07:00:04.628Z,16.90
2018-09-17T07:02:33.504Z,17.00
2018-09-17T07:05:02.429Z,17.00
2018-09-17T07:07:31.301Z,17.00
2018-09-17T07:10:00.236Z,17.10
2018-09-17T07:12:29.091Z,17.30
2018-09-17T07:14:58.040Z,17.40
2018-09-17T07:17:26.861Z,17.50
2018-09-17T07:19:55.793Z,17.60
2018-09-17T07:22:24.868Z,17.70
2018-09-17T07:24:53.764Z,17.80
2018-09-17T07:27:22.649Z,17.90
2018-09-17T07:29:51.896Z,18.00
2018-09-17T07:32:20.849Z,18.10
2018-09-17T07:34:49.796Z,18.20
2018-09-17T07:37:18.789Z,18.30
2018-09-17T07:39:47.746Z,18.40
2018-09-17T07:42:16.596Z,18.50
2018-09-17T07:44:45.504Z,18.60
2018-09-17T07:47:14.399Z,18.70
2018-09-17T07:49:43.296Z,18.80
2018-09-17T07:52:12.176Z,18.90
2018-09-17T07:54:41.077Z,19.00
2018-09-17T07:57:10.105Z,19.10
2018-09-17T07:59:39.033Z,19.30
2018-09-17T08:02:07.884Z,19.30
2018-09-17T08:04:36.841Z,19.40
2018-09-17T08:07:05.872Z,19.50
2018-09-17T08:09:34.828Z,19.70
2018-09-17T08:12:04.047Z,19.80
2018-09-17T08:14:32.963Z,19.90
2018-09-17T08:17:02.607Z,20.00
2018-09-17T08:19:31.506Z,20.10
2018-09-17T08:22:00.793Z,20.20
2018-09-17T08:24:29.723Z,20.30
2018-09-17T08:26:58.632Z,20.50
2018-09-17T08:29:27.499Z,20.60
2018-09-17T08:31:56.788Z,20.70
2018-09-17T08:34:25.729Z,20.80
2018-09-17T08:36:54.600Z,20.90
2018-09-17T08:39:23.526Z,21.00
2018-09-17T08:41:52.411Z,21.10
2018-09-17T08:44:21.308Z,21.20
2018-09-17T08:46:50.188Z,21.30
2018-09-17T08:49:19.084Z,21.40
2018-09-17T08:51:47.957Z,21.40
2018-09-17T08:54:16.870Z,21.60
2018-09-17T08:56:56.102Z,21.70
2018-09-17T08:59:30.212Z,21.90
2018-09-17T09:02:00.661Z,22.10
2018-09-17T09:04:34.793Z,22.20
2018-09-17T09:07:11.325Z,22.30
2018-09-17T09:09:40.202Z,22.50
2018-09-17T09:12:14.392Z,22.60
2018-09-17T09:14:43.276Z,22.70
2018-09-17T09:17:12.619Z,22.90
2018-09-17T09:19:41.607Z,23.10
2018-09-17T09:22:10.640Z,23.20
2018-09-17T09:24:39.520Z,23.30
2018-09-17T09:27:08.441Z,23.40
2018-09-17T09:29:38.251Z,23.40
2018-09-17T09:32:07.137Z,23.40
2018-09-17T09:34:36.056Z,23.60
2018-09-17T09:37:04.952Z,23.80
2018-09-17T09:39:33.869Z,23.90
2018-09-17T09:42:02.768Z,24.00
2018-09-17T09:44:31.628Z,24.20
2018-09-17T09:47:00.577Z,24.30
2018-09-17T09:49:29.438Z,24.40
2018-09-17T09:51:58.372Z,24.60
2018-09-17T09:54:27.269Z,24.70
2018-09-17T09:56:56.154Z,24.90
2018-09-17T09:59:25.106Z,25.10
2018-09-17T10:01:54.489Z,25.30
2018-09-17T10:04:23.952Z,25.40
2018-09-17T10:06:53.309Z,25.50
2018-09-17T10:09:27.401Z,25.60
2018-09-17T10:12:01.347Z,25.80
2018-09-17T10:14:35.381Z,26.00
2018-09-17T10:17:09.616Z,26.20
2018-09-17T10:19:42.720Z,26.40
2018-09-17T10:22:11.664Z,26.60
2018-09-17T10:24:40.548Z,26.80
2018-09-17T10:27:09.590Z,27.00
2018-09-17T10:29:38.472Z,27.20
2018-09-17T10:32:07.400Z,27.30
2018-09-17T10:34:36.335Z,27.40
2018-09-17T10:37:05.382Z,27.60
2018-09-17T10:39:34.403Z,27.80
2018-09-17T10:42:03.293Z,28.00
2018-09-17T10:44:32.293Z,27.90
2018-09-17T10:47:01.261Z,27.90
2018-09-17T10:49:30.085Z,28.10
2018-09-17T10:51:59.028Z,28.20
2018-09-17T10:54:27.896Z,28.20
2018-09-17T10:56:56.852Z,28.30
2018-09-17T10:59:25.762Z,28.30
2018-09-17T11:01:54.668Z,28.40
2018-09-17T11:04:23.563Z,28.60
2018-09-17T11:06:52.504Z,28.80
2018-09-17T11:09:21.737Z,28.90
2018-09-17T11:11:50.693Z,29.00
2018-09-17T11:14:19.570Z,29.00
2018-09-17T11:16:48.503Z,29.00
2018-09-17T11:19:17.353Z,29.10
2018-09-17T11:21:46.287Z,29.40
2018-09-17T11:24:15.182Z,29.60
2018-09-17T11:26:44.102Z,29.70
2018-09-17T11:29:12.993Z,29.90
2018-09-17T11:31:41.909Z,30.00
2018-09-17T11:34:10.819Z,30.00
2018-09-17T11:36:39.840Z,30.00
2018-09-17T11:39:10.764Z,30.10
2018-09-17T11:41:42.872Z,30.20
2018-09-17T11:44:11.724Z,30.30
2018-09-17T11:46:40.700Z,30.00
2018-09-17T11:49:09.583Z,29.40
2018-09-17T11:51:38.585Z,29.00
2018-09-17T11:54:07.522Z,28.80
2018-09-17T11:56:36.404Z,28.50
2018-09-17T11:59:05.305Z,28.30
2018-09-17T12:01:39.616Z,28.20
2018-09-17T12:04:12.049Z,28.10
2018-09-17T12:06:46.167Z,28.10
2018-09-17T12:09:15.078Z,28.40
2018-09-17T12:11:44.008Z,28.90
2018-09-17T12:14:12.916Z,29.00
2018-09-17T12:16:41.903Z,29.20
2018-09-17T12:19:10.778Z,29.50
2018-09-17T12:21:39.684Z,29.90
2018-09-17T12:24:08.598Z,30.30
2018-09-17T12:26:37.516Z,30.60
2018-09-17T12:29:06.525Z,30.80
2018-09-17T12:31:35.458Z,30.80
2018-09-17T12:34:04.340Z,30.90
2018-09-17T12:36:33.572Z,31.20
2018-09-17T12:39:02.471Z,31.10
2018-09-17T12:41:31.385Z,31.10
2018-09-17T12:44:00.294Z,31.20
2018-09-17T12:46:29.211Z,31.30
2018-09-17T12:48:58.185Z,31.30
2018-09-17T12:51:27.094Z,31.30
2018-09-17T12:53:56.098Z,31.30
2018-09-17T12:56:25.205Z,31.30
2018-09-17T12:58:54.140Z,31.40
2018-09-17T13:01:23.145Z,31.50
2018-09-17T13:03:52.047Z,31.60
2018-09-17T13:06:21.004Z,31.60
2018-09-17T13:08:49.925Z,31.40
2018-09-17T13:11:18.821Z,31.50
2018-09-17T13:13:47.740Z,31.40
2018-09-17T13:16:16.648Z,31.50
2018-09-17T13:18:45.537Z,31.70
2018-09-17T13:21:14.482Z,31.70
2018-09-17T13:23:43.388Z,31.50
2018-09-17T13:26:12.361Z,31.60
2018-09-17T13:28:41.240Z,31.70
2018-09-17T13:31:10.173Z,31.70
2018-09-17T13:33:39.913Z,31.80
2018-09-17T13:36:08.866Z,31.90
2018-09-17T13:38:37.772Z,31.70
2018-09-17T13:41:06.758Z,31.70
2018-09-17T13:43:35.696Z,31.60
2018-09-17T13:46:04.718Z,31.70
2018-09-17T13:48:33.687Z,31.80
2018-09-17T13:51:02.578Z,31.90
2018-09-17T13:53:38.143Z,32.10
2018-09-17T13:56:07.003Z,32.10
2018-09-17T13:58:35.980Z,32.10
2018-09-17T14:01:05.010Z,32.20
2018-09-17T14:03:33.945Z,32.20
2018-09-17T14:06:02.869Z,32.10
2018-09-17T14:08:31.772Z,32.10
2018-09-17T14:11:00.790Z,32.30
2018-09-17T14:13:29.710Z,32.50
2018-09-17T14:16:01.850Z,32.60
2018-09-17T14:18:31.281Z,32.70
2018-09-17T14:21:00.174Z,32.90
2018-09-17T14:23:30.012Z,33.30
2018-09-17T14:25:58.965Z,33.90
2018-09-17T14:28:28.036Z,34.40
2018-09-17T14:30:56.916Z,34.70
2018-09-17T14:33:31.127Z,35.50
2018-09-17T14:36:00.001Z,35.90
2018-09-17T14:38:28.911Z,35.50
2018-09-17T14:40:57.800Z,34.60
2018-09-17T14:43:26.668Z,35.20
2018-09-17T14:45:55.635Z,36.00
2018-09-17T14:48:24.480Z,34.70
2018-09-17T14:50:53.619Z,33.00
2018-09-17T14:53:22.600Z,31.80
2018-09-17T14:55:51.448Z,31.00
2018-09-17T14:58:20.382Z,31.30
2018-09-17T15:00:49.577Z,33.30
2018-09-17T15:03:18.432Z,35.10
2018-09-17T15:05:47.381Z,36.20
2018-09-17T15:08:16.707Z,36.40
2018-09-17T15:10:45.524Z,36.90
2018-09-17T15:13:14.421Z,37.20
2018-09-17T15:15:47.070Z,37.10
2018-09-17T15:18:16.503Z,35.70
2018-09-17T15:20:45.460Z,34.30
2018-09-17T15:23:14.737Z,33.40
2018-09-17T15:25:43.816Z,32.40
2018-09-17T15:28:12.773Z,31.40
2018-09-17T15:30:41.674Z,30.40
2018-09-17T15:33:10.610Z,30.70
2018-09-17T15:35:39.592Z,32.30
2018-09-17T15:38:08.605Z,33.60
2018-09-17T15:40:37.631Z,34.70
2018-09-17T15:43:06.450Z,35.40
2018-09-17T15:45:35.381Z,35.70
2018-09-17T15:48:04.256Z,35.90
2018-09-17T15:50:33.132Z,36.10
2018-09-17T15:53:01.953Z,35.40
2018-09-17T15:55:30.958Z,34.00
2018-09-17T15:57:59.819Z,32.30
2018-09-17T16:00:28.692Z,30.70
2018-09-17T16:02:57.671Z,29.70
2018-09-17T16:05:26.510Z,29.00
2018-09-17T16:07:55.417Z,28.30
2018-09-17T16:10:24.347Z,27.90
2018-09-17T16:12:54.477Z,27.60
2018-09-17T16:15:23.401Z,27.40
2018-09-17T16:17:52.276Z,27.10
2018-09-17T16:20:21.157Z,26.90
2018-09-17T16:22:50.141Z,26.70
2018-09-17T16:25:19.045Z,26.60
2018-09-17T16:27:47.903Z,26.50
2018-09-17T16:30:16.784Z,26.40
2018-09-17T16:32:45.660Z,26.20
2018-09-17T16:35:14.540Z,26.10
2018-09-17T16:37:43.724Z,25.90
2018-09-17T16:40:12.584Z,25.80
2018-09-17T16:42:41.505Z,25.50
2018-09-17T16:45:10.400Z,25.40
2018-09-17T16:47:39.276Z,25.30
2018-09-17T16:50:08.169Z,25.10
2018-09-17T16:52:37.109Z,24.90
2018-09-17T16:55:06.278Z,24.80
2018-09-17T16:57:35.160Z,24.70
2018-09-17T17:00:04.157Z,24.60
2018-09-17T17:02:33.009Z,24.60
2018-09-17T17:05:01.969Z,24.50
2018-09-17T17:07:30.800Z,24.50
2018-09-17T17:09:59.736Z,24.50
2018-09-17T17:12:28.635Z,24.50
2018-09-17T17:14:57.525Z,24.50
2018-09-17T17:17:26.392Z,24.40
2018-09-17T17:19:55.309Z,24.20
2018-09-17T17:22:24.268Z,24.10
2018-09-17T17:24:53.200Z,23.90
2018-09-17T17:27:22.076Z,23.80
2018-09-17T17:29:50.941Z,23.80
2018-09-17T17:32:19.842Z,23.70
2018-09-17T17:34:48.693Z,23.70
2018-09-17T17:37:17.813Z,23.60
2018-09-17T17:39:46.832Z,23.50
2018-09-17T17:42:15.660Z,23.40
2018-09-17T17:44:44.549Z,23.20
2018-09-17T17:47:14.157Z,23.10
2018-09-17T17:49:43.084Z,23.10
2018-09-17T17:52:12.063Z,23.20
2018-09-17T17:54:41.048Z,23.30
2018-09-17T17:57:09.965Z,23.30
2018-09-17T17:59:38.904Z,23.30
2018-09-17T18:02:07.892Z,23.30
2018-09-17T18:04:36.817Z,23.20
2018-09-17T18:07:05.810Z,23.00
2018-09-17T18:09:34.684Z,22.90
2018-09-17T18:12:03.689Z,22.90
2018-09-17T18:14:32.852Z,22.80
2018-09-17T18:17:01.744Z,22.80
2018-09-17T18:19:31.885Z,22.80
2018-09-17T18:22:00.835Z,22.70
2018-09-17T18:24:29.676Z,22.70
2018-09-17T18:26:58.846Z,22.70
2018-09-17T18:29:27.725Z,22.70
2018-09-17T18:31:56.753Z,22.80
2018-09-17T18:34:25.653Z,22.80
2018-09-17T18:36:54.610Z,22.80
2018-09-17T18:39:23.598Z,22.70
2018-09-17T18:41:52.476Z,22.70
2018-09-17T18:44:22.341Z,22.60
2018-09-17T18:46:51.231Z,22.60
2018-09-17T18:49:20.288Z,22.60
2018-09-17T18:51:49.184Z,22.50
2018-09-17T18:54:18.105Z,22.50
2018-09-17T18:56:47.105Z,22.40
2018-09-17T18:59:15.982Z,22.40
2018-09-17T19:01:44.928Z,22.30
2018-09-17T19:04:13.849Z,22.20
2018-09-17T19:06:42.776Z,22.20
2018-09-17T19:09:11.766Z,22.30
2018-09-17T19:11:40.676Z,22.20
2018-09-17T19:14:14.777Z,22.10
2018-09-17T19:16:49.806Z,22.00
2018-09-17T19:19:19.063Z,21.90
2018-09-17T19:21:53.474Z,21.80
2018-09-17T19:24:22.481Z,21.60
2018-09-17T19:26:51.894Z,21.50
2018-09-17T19:29:21.849Z,21.40
2018-09-17T19:31:50.801Z,21.40
2018-09-17T19:34:19.732Z,21.30
2018-09-17T19:36:49.568Z,21.30
2018-09-17T19:39:25.298Z,21.20
2018-09-17T19:41:54.479Z,21.20
2018-09-17T19:44:23.785Z,21.10
2018-09-17T19:46:52.786Z,20.90
2018-09-17T19:49:21.754Z,20.70
2018-09-17T19:51:55.809Z,20.60
2018-09-17T19:54:24.906Z,20.60
2018-09-17T19:56:54.569Z,20.50
2018-09-17T19:59:28.993Z,20.50
2018-09-17T20:01:57.985Z,20.50
2018-09-17T20:04:32.185Z,20.40
2018-09-17T20:07:01.333Z,20.50
2018-09-17T20:09:30.436Z,20.40
2018-09-17T20:12:00.982Z,20.40
2018-09-17T20:14:52.493Z,20.40
2018-09-17T20:17:39.379Z,20.30
2018-09-17T20:20:25.606Z,20.30
2018-09-17T20:22:55.843Z,20.20
2018-09-17T20:25:24.990Z,20.20
2018-09-17T20:27:54.513Z,20.10
2018-09-17T20:30:23.689Z,20.10
2018-09-17T20:32:52.977Z,20.00
2018-09-17T20:35:22.483Z,20.00
2018-09-17T20:37:53.333Z,19.90
2018-09-17T20:40:22.541Z,19.90
2018-09-17T20:42:56.148Z,19.80
2018-09-17T20:45:25.321Z,19.80
2018-09-17T20:47:54.357Z,19.80
2018-09-17T20:50:23.445Z,19.70
2018-09-17T20:52:52.895Z,19.60
2018-09-17T20:55:22.789Z,19.60
2018-09-17T20:57:51.626Z,19.60
2018-09-17T21:00:20.717Z,19.60
2018-09-17T21:02:49.629Z,19.60
2018-09-17T21:05:18.816Z,19.50
2018-09-17T21:07:47.753Z,19.50
2018-09-17T21:10:16.900Z,19.50
2018-09-17T21:12:45.856Z,19.40
2018-09-17T21:15:14.827Z,19.40
2018-09-17T21:17:43.734Z,19.30
2018-09-17T21:20:12.707Z,19.20
2018-09-17T21:22:41.627Z,19.00
2018-09-17T21:25:10.559Z,19.00
2018-09-17T21:27:39.480Z,18.90
2018-09-17T21:30:08.380Z,19.20
2018-09-17T21:32:37.265Z,19.60
2018-09-17T21:35:06.217Z,19.90
2018-09-17T21:37:35.093Z,19.80
2018-09-17T21:40:03.987Z,19.60
2018-09-17T21:42:32.856Z,19.50
2018-09-17T21:45:01.675Z,19.40
2018-09-17T21:47:30.605Z,19.20
2018-09-17T21:49:59.452Z,19.10
2018-09-17T21:52:28.490Z,19.00
2018-09-17T21:54:57.552Z,18.90
2018-09-17T21:57:26.441Z,18.80
2018-09-17T22:00:05.404Z,18.80
2018-09-17T22:02:34.344Z,18.70
2018-09-17T22:05:03.203Z,18.70
2018-09-17T22:07:32.240Z,18.60
2018-09-17T22:10:01.144Z,18.50
2018-09-17T22:12:30.021Z,18.50
2018-09-17T22:14:58.904Z,18.50
2018-09-17T22:17:27.771Z,18.50
2018-09-17T22:19:56.705Z,18.40
2018-09-17T22:22:25.540Z,18.40
2018-09-17T22:24:54.525Z,18.50
2018-09-17T22:27:23.372Z,18.50
2018-09-17T22:29:52.248Z,18.50
2018-09-17T22:32:21.218Z,18.40
2018-09-17T22:34:50.096Z,18.30
2018-09-17T22:37:18.960Z,18.30
2018-09-17T22:39:47.857Z,18.30
2018-09-17T22:42:16.747Z,18.20
2018-09-17T22:44:45.717Z,18.20
2018-09-17T22:47:14.649Z,18.10
2018-09-17T22:49:43.563Z,18.10
2018-09-17T22:52:12.416Z,18.10
2018-09-17T22:54:41.336Z,18.10
2018-09-17T22:57:10.228Z,18.10
2018-09-17T22:59:39.104Z,18.00
2018-09-17T23:02:08.016Z,18.10
2018-09-17T23:04:36.852Z,18.00
2018-09-17T23:07:05.987Z,18.00
2018-09-17T23:09:34.897Z,17.90
2018-09-17T23:12:03.801Z,17.90
2018-09-17T23:14:32.688Z,17.90
2018-09-17T23:17:01.516Z,17.80
2018-09-17T23:19:30.360Z,17.80
2018-09-17T23:21:59.229Z,17.70
2018-09-17T23:24:28.079Z,17.70
2018-09-17T23:26:56.977Z,17.70
2018-09-17T23:29:25.815Z,17.60
2018-09-17T23:31:54.716Z,17.60
2018-09-17T23:34:23.561Z,17.60
2018-09-17T23:36:52.470Z,17.60
2018-09-17T23:39:21.303Z,17.60
2018-09-17T23:41:50.213Z,17.60
2018-09-17T23:44:19.048Z,17.50
2018-09-17T23:46:47.938Z,17.50
2018-09-17T23:49:16.817Z,17.50
2018-09-17T23:51:45.684Z,17.50
2018-09-17T23:54:14.602Z,17.40
2018-09-17T23:56:43.460Z,17.40
2018-09-17T23:59:12.389Z,17.40
